Terminal Aerodrome Forecast
Issued by NWS Milwaukee/Sullivan, WI

Home | Current Version | Previous Version | Text Only | Print | Product List | Glossary On
Versions: 1 2 3 4 5 6 7 8 9 10 11 12 13 14 15 16 17 18 19 20 21 22 23 24 25 26
000
FTUS43 KMKX 271120
TAFMSN
TAF
KMSN 271120Z 2712/2812 00000KT P6SM SKC
     FM271600 17007KT P6SM SCT060
     FM280200 15005KT P6SM BKN100
     FM280700 14008KT 6SM -RA OVC035
     FM280800 14008KT 4SM -RA BR OVC020
     FM281000 15010KT 2SM -RA BR OVC005=

USA.gov is the U.S. government's official web portal to all federal, state and local government web resources and services.